sensor_id;sensor_type;location;lat;lon;timestamp;P1;durP1;ratioP1;P2;durP2;ratioP2
8044;SDS011;4065;48.754;9.982;2022-12-24T00:02:14;5.78;;;3.55;;
8044;SDS011;4065;48.754;9.982;2022-12-24T00:05:17;6.05;;;4.15;;
8044;SDS011;4065;48.754;9.982;2022-12-24T00:08:19;5.95;;;3.45;;
8044;SDS011;4065;48.754;9.982;2022-12-24T00:11:20;7.68;;;3.55;;
8044;SDS011;4065;48.754;9.982;2022-12-24T00:14:22;5.30;;;3.35;;
8044;SDS011;4065;48.754;9.982;2022-12-24T00:17:24;6.45;;;3.60;;
8044;SDS011;4065;48.754;9.982;2022-12-24T00:20:26;5.85;;;3.00;;
8044;SDS011;4065;48.754;9.982;2022-12-24T00:23:28;6.75;;;3.25;;
8044;SDS011;4065;48.754;9.982;2022-12-24T00:26:33;9.15;;;3.38;;
8044;SDS011;4065;48.754;9.982;2022-12-24T00:29:35;7.72;;;3.28;;
8044;SDS011;4065;48.754;9.982;2022-12-24T00:32:36;8.27;;;3.22;;
8044;SDS011;4065;48.754;9.982;2022-12-24T00:35:39;4.82;;;2.65;;
8044;SDS011;4065;48.754;9.982;2022-12-24T00:38:41;7.55;;;2.47;;
8044;SDS011;4065;48.754;9.982;2022-12-24T00:41:43;7.90;;;3.40;;
8044;SDS011;4065;48.754;9.982;2022-12-24T00:44:44;5.40;;;2.30;;
8044;SDS011;4065;48.754;9.982;2022-12-24T00:47:46;6.38;;;2.75;;
8044;SDS011;4065;48.754;9.982;2022-12-24T00:50:50;7.25;;;2.80;;
8044;SDS011;4065;48.754;9.982;2022-12-24T00:53:52;5.95;;;3.03;;
8044;SDS011;4065;48.754;9.982;2022-12-24T00:56:53;8.00;;;3.00;;
8044;SDS011;4065;48.754;9.982;2022-12-24T00:59:55;4.45;;;2.35;;
8044;SDS011;4065;48.754;9.982;2022-12-24T01:02:57;4.20;;;2.40;;
8044;SDS011;4065;48.754;9.982;2022-12-24T01:06:00;8.63;;;2.88;;
8044;SDS011;4065;48.754;9.982;2022-12-24T01:09:00;8.82;;;3.08;;
8044;SDS011;4065;48.754;9.982;2022-12-24T01:12:04;13.13;;;3.38;;
8044;SDS011;4065;48.754;9.982;2022-12-24T01:15:06;8.15;;;3.13;;
8044;SDS011;4065;48.754;9.982;2022-12-24T01:18:08;5.50;;;2.75;;
8044;SDS011;4065;48.754;9.982;2022-12-24T01:21:12;6.65;;;2.58;;
8044;SDS011;4065;48.754;9.982;2022-12-24T01:24:16;8.18;;;3.08;;
8044;SDS011;4065;48.754;9.982;2022-12-24T01:27:17;6.35;;;3.22;;
8044;SDS011;4065;48.754;9.982;2022-12-24T01:30:19;6.32;;;3.20;;
8044;SDS011;4065;48.754;9.982;2022-12-24T01:33:21;7.82;;;2.88;;
8044;SDS011;4065;48.754;9.982;2022-12-24T01:36:23;9.18;;;3.00;;
8044;SDS011;4065;48.754;9.982;2022-12-24T01:39:25;9.13;;;3.00;;
8044;SDS011;4065;48.754;9.982;2022-12-24T01:42:26;7.90;;;3.05;;
8044;SDS011;4065;48.754;9.982;2022-12-24T01:45:47;11.05;;;3.40;;
8044;SDS011;4065;48.754;9.982;2022-12-24T01:48:50;8.40;;;3.08;;
8044;SDS011;4065;48.754;9.982;2022-12-24T01:51:55;8.52;;;2.92;;
8044;SDS011;4065;48.754;9.982;2022-12-24T01:54:59;9.63;;;3.00;;
8044;SDS011;4065;48.754;9.982;2022-12-24T01:58:03;6.63;;;3.25;;
8044;SDS011;4065;48.754;9.982;2022-12-24T02:01:05;9.77;;;2.65;;
8044;SDS011;4065;48.754;9.982;2022-12-24T02:04:12;8.20;;;3.40;;
8044;SDS011;4065;48.754;9.982;2022-12-24T02:07:19;15.43;;;4.60;;
8044;SDS011;4065;48.754;9.982;2022-12-24T02:10:21;7.78;;;3.25;;
8044;SDS011;4065;48.754;9.982;2022-12-24T02:13:23;6.13;;;3.20;;
8044;SDS011;4065;48.754;9.982;2022-12-24T02:16:27;7.68;;;3.22;;
8044;SDS011;4065;48.754;9.982;2022-12-24T02:19:39;7.50;;;3.55;;
8044;SDS011;4065;48.754;9.982;2022-12-24T02:23:01;11.00;;;3.45;;
8044;SDS011;4065;48.754;9.982;2022-12-24T02:26:14;11.93;;;3.47;;
8044;SDS011;4065;48.754;9.982;2022-12-24T02:29:26;10.40;;;3.60;;
8044;SDS011;4065;48.754;9.982;2022-12-24T02:36:28;8.07;;;3.20;;
8044;SDS011;4065;48.754;9.982;2022-12-24T02:39:32;7.63;;;3.42;;
8044;SDS011;4065;48.754;9.982;2022-12-24T02:42:40;9.05;;;3.50;;
8044;SDS011;4065;48.754;9.982;2022-12-24T02:45:43;9.75;;;3.80;;
8044;SDS011;4065;48.754;9.982;2022-12-24T02:48:48;7.82;;;3.30;;
8044;SDS011;4065;48.754;9.982;2022-12-24T02:51:50;13.48;;;3.72;;
8044;SDS011;4065;48.754;9.982;2022-12-24T02:54:51;11.00;;;3.50;;
8044;SDS011;4065;48.754;9.982;2022-12-24T02:58:00;9.93;;;4.13;;
8044;SDS011;4065;48.754;9.982;2022-12-24T03:01:08;9.43;;;3.70;;
8044;SDS011;4065;48.754;9.982;2022-12-24T03:04:22;13.50;;;4.10;;
8044;SDS011;4065;48.754;9.982;2022-12-24T03:07:40;10.00;;;4.20;;
8044;SDS011;4065;48.754;9.982;2022-12-24T03:10:45;9.25;;;3.65;;
8044;SDS011;4065;48.754;9.982;2022-12-24T03:13:53;10.32;;;3.95;;
8044;SDS011;4065;48.754;9.982;2022-12-24T03:16:55;12.20;;;4.65;;
8044;SDS011;4065;48.754;9.982;2022-12-24T03:19:59;11.32;;;4.65;;
8044;SDS011;4065;48.754;9.982;2022-12-24T03:23:01;11.77;;;4.18;;
8044;SDS011;4065;48.754;9.982;2022-12-24T03:26:04;14.63;;;4.50;;
8044;SDS011;4065;48.754;9.982;2022-12-24T03:29:07;13.18;;;5.05;;
8044;SDS011;4065;48.754;9.982;2022-12-24T03:32:09;11.02;;;4.32;;
8044;SDS011;4065;48.754;9.982;2022-12-24T03:35:12;15.48;;;5.05;;
8044;SDS011;4065;48.754;9.982;2022-12-24T03:38:14;14.40;;;5.20;;
8044;SDS011;4065;48.754;9.982;2022-12-24T03:41:15;13.38;;;4.93;;
8044;SDS011;4065;48.754;9.982;2022-12-24T03:44:17;15.80;;;4.68;;
8044;SDS011;4065;48.754;9.982;2022-12-24T03:47:18;16.15;;;4.90;;
8044;SDS011;4065;48.754;9.982;2022-12-24T03:50:21;14.95;;;5.45;;
8044;SDS011;4065;48.754;9.982;2022-12-24T03:53:23;17.80;;;4.90;;
8044;SDS011;4065;48.754;9.982;2022-12-24T03:56:25;12.70;;;4.68;;
8044;SDS011;4065;48.754;9.982;2022-12-24T03:59:26;14.10;;;5.47;;
8044;SDS011;4065;48.754;9.982;2022-12-24T04:02:28;13.82;;;4.78;;
8044;SDS011;4065;48.754;9.982;2022-12-24T04:05:32;11.68;;;5.25;;
8044;SDS011;4065;48.754;9.982;2022-12-24T04:08:34;14.77;;;4.82;;
8044;SDS011;4065;48.754;9.982;2022-12-24T04:11:35;12.95;;;4.35;;
8044;SDS011;4065;48.754;9.982;2022-12-24T04:14:37;19.15;;;4.55;;
8044;SDS011;4065;48.754;9.982;2022-12-24T04:17:38;14.32;;;4.55;;
8044;SDS011;4065;48.754;9.982;2022-12-24T04:20:41;16.23;;;4.90;;
8044;SDS011;4065;48.754;9.982;2022-12-24T04:23:43;13.23;;;3.97;;
8044;SDS011;4065;48.754;9.982;2022-12-24T04:26:45;15.82;;;4.10;;
8044;SDS011;4065;48.754;9.982;2022-12-24T04:29:46;13.43;;;4.43;;
8044;SDS011;4065;48.754;9.982;2022-12-24T04:32:48;8.93;;;4.05;;
8044;SDS011;4065;48.754;9.982;2022-12-24T04:35:51;11.77;;;3.80;;
8044;SDS011;4065;48.754;9.982;2022-12-24T04:38:52;12.40;;;5.10;;
8044;SDS011;4065;48.754;9.982;2022-12-24T04:41:54;16.60;;;4.65;;
8044;SDS011;4065;48.754;9.982;2022-12-24T04:44:56;8.07;;;3.50;;
8044;SDS011;4065;48.754;9.982;2022-12-24T04:47:57;15.90;;;4.88;;
8044;SDS011;4065;48.754;9.982;2022-12-24T04:51:01;11.32;;;3.90;;
8044;SDS011;4065;48.754;9.982;2022-12-24T04:54:03;13.85;;;3.75;;
8044;SDS011;4065;48.754;9.982;2022-12-24T04:57:05;12.10;;;4.10;;
8044;SDS011;4065;48.754;9.982;2022-12-24T05:00:07;12.25;;;3.85;;
8044;SDS011;4065;48.754;9.982;2022-12-24T05:03:09;15.27;;;4.22;;
8044;SDS011;4065;48.754;9.982;2022-12-24T05:06:12;13.45;;;4.00;;
8044;SDS011;4065;48.754;9.982;2022-12-24T05:09:15;14.68;;;4.50;;
8044;SDS011;4065;48.754;9.982;2022-12-24T05:12:17;16.90;;;5.28;;
8044;SDS011;4065;48.754;9.982;2022-12-24T05:15:19;11.63;;;4.22;;
8044;SDS011;4065;48.754;9.982;2022-12-24T05:18:21;14.25;;;4.93;;
8044;SDS011;4065;48.754;9.982;2022-12-24T05:21:24;14.43;;;4.50;;
8044;SDS011;4065;48.754;9.982;2022-12-24T05:24:25;13.68;;;4.32;;
8044;SDS011;4065;48.754;9.982;2022-12-24T05:27:45;10.40;;;4.43;;
8044;SDS011;4065;48.754;9.982;2022-12-24T05:30:49;12.65;;;4.13;;
8044;SDS011;4065;48.754;9.982;2022-12-24T05:33:51;12.57;;;4.20;;
8044;SDS011;4065;48.754;9.982;2022-12-24T05:36:55;14.02;;;4.80;;
8044;SDS011;4065;48.754;9.982;2022-12-24T05:39:56;14.88;;;4.40;;
8044;SDS011;4065;48.754;9.982;2022-12-24T05:42:58;13.23;;;4.22;;
8044;SDS011;4065;48.754;9.982;2022-12-24T05:46:00;8.35;;;4.28;;
8044;SDS011;4065;48.754;9.982;2022-12-24T05:49:02;12.75;;;5.18;;
8044;SDS011;4065;48.754;9.982;2022-12-24T05:52:05;14.95;;;5.40;;
8044;SDS011;4065;48.754;9.982;2022-12-24T05:55:07;9.65;;;4.03;;
8044;SDS011;4065;48.754;9.982;2022-12-24T05:58:12;12.68;;;4.32;;
8044;SDS011;4065;48.754;9.982;2022-12-24T06:01:14;11.85;;;4.70;;
8044;SDS011;4065;48.754;9.982;2022-12-24T06:04:15;15.38;;;4.95;;
8044;SDS011;4065;48.754;9.982;2022-12-24T06:07:18;15.63;;;5.45;;
8044;SDS011;4065;48.754;9.982;2022-12-24T06:10:20;13.95;;;4.50;;
8044;SDS011;4065;48.754;9.982;2022-12-24T06:13:21;9.57;;;3.92;;
8044;SDS011;4065;48.754;9.982;2022-12-24T06:16:23;8.93;;;4.22;;
8044;SDS011;4065;48.754;9.982;2022-12-24T06:19:25;10.85;;;3.78;;
8044;SDS011;4065;48.754;9.982;2022-12-24T06:22:28;11.18;;;3.70;;
8044;SDS011;4065;48.754;9.982;2022-12-24T06:25:30;9.25;;;3.72;;
8044;SDS011;4065;48.754;9.982;2022-12-24T06:28:33;6.97;;;3.40;;
8044;SDS011;4065;48.754;9.982;2022-12-24T06:31:35;7.90;;;3.67;;
8044;SDS011;4065;48.754;9.982;2022-12-24T06:34:37;10.65;;;3.67;;
8044;SDS011;4065;48.754;9.982;2022-12-24T06:37:40;9.02;;;4.40;;
8044;SDS011;4065;48.754;9.982;2022-12-24T06:40:42;10.23;;;4.65;;
8044;SDS011;4065;48.754;9.982;2022-12-24T06:43:45;10.45;;;3.90;;
8044;SDS011;4065;48.754;9.982;2022-12-24T06:46:48;10.10;;;3.95;;
8044;SDS011;4065;48.754;9.982;2022-12-24T06:49:49;10.73;;;4.00;;
8044;SDS011;4065;48.754;9.982;2022-12-24T06:52:52;12.13;;;4.15;;
8044;SDS011;4065;48.754;9.982;2022-12-24T06:55:59;12.15;;;3.67;;
8044;SDS011;4065;48.754;9.982;2022-12-24T06:59:01;10.52;;;4.65;;
8044;SDS011;4065;48.754;9.982;2022-12-24T07:02:03;10.65;;;3.70;;
8044;SDS011;4065;48.754;9.982;2022-12-24T07:05:04;10.77;;;4.30;;
8044;SDS011;4065;48.754;9.982;2022-12-24T07:08:08;11.40;;;3.83;;
8044;SDS011;4065;48.754;9.982;2022-12-24T07:11:10;9.50;;;3.97;;
8044;SDS011;4065;48.754;9.982;2022-12-24T07:14:12;11.15;;;3.70;;
8044;SDS011;4065;48.754;9.982;2022-12-24T07:17:13;17.48;;;5.15;;
8044;SDS011;4065;48.754;9.982;2022-12-24T07:20:15;16.42;;;4.47;;
8044;SDS011;4065;48.754;9.982;2022-12-24T07:23:18;12.55;;;5.50;;
8044;SDS011;4065;48.754;9.982;2022-12-24T07:26:20;10.70;;;4.30;;
8044;SDS011;4065;48.754;9.982;2022-12-24T07:29:21;9.82;;;4.32;;
8044;SDS011;4065;48.754;9.982;2022-12-24T07:32:23;13.55;;;4.80;;
8044;SDS011;4065;48.754;9.982;2022-12-24T07:35:25;10.40;;;4.32;;
8044;SDS011;4065;48.754;9.982;2022-12-24T07:38:28;10.82;;;4.38;;
8044;SDS011;4065;48.754;9.982;2022-12-24T07:41:30;12.00;;;4.65;;
8044;SDS011;4065;48.754;9.982;2022-12-24T07:44:31;9.75;;;3.80;;
8044;SDS011;4065;48.754;9.982;2022-12-24T07:47:33;14.52;;;4.55;;
8044;SDS011;4065;48.754;9.982;2022-12-24T07:50:35;10.25;;;4.15;;
8044;SDS011;4065;48.754;9.982;2022-12-24T07:53:38;11.95;;;4.78;;
8044;SDS011;4065;48.754;9.982;2022-12-24T07:56:46;9.00;;;3.95;;
8044;SDS011;4065;48.754;9.982;2022-12-24T07:59:47;9.30;;;4.20;;
8044;SDS011;4065;48.754;9.982;2022-12-24T08:02:49;11.40;;;3.95;;
8044;SDS011;4065;48.754;9.982;2022-12-24T08:05:51;13.27;;;3.90;;
8044;SDS011;4065;48.754;9.982;2022-12-24T08:08:54;13.45;;;3.88;;
8044;SDS011;4065;48.754;9.982;2022-12-24T08:11:55;17.67;;;3.70;;
8044;SDS011;4065;48.754;9.982;2022-12-24T08:14:57;16.15;;;5.63;;
8044;SDS011;4065;48.754;9.982;2022-12-24T08:17:59;12.93;;;4.30;;
8044;SDS011;4065;48.754;9.982;2022-12-24T08:21:00;11.48;;;4.38;;
8044;SDS011;4065;48.754;9.982;2022-12-24T08:24:03;13.35;;;3.78;;
8044;SDS011;4065;48.754;9.982;2022-12-24T08:27:06;18.70;;;4.72;;
8044;SDS011;4065;48.754;9.982;2022-12-24T08:30:08;8.70;;;4.40;;
8044;SDS011;4065;48.754;9.982;2022-12-24T08:33:10;13.35;;;5.13;;
8044;SDS011;4065;48.754;9.982;2022-12-24T08:36:12;40.03;;;22.25;;
8044;SDS011;4065;48.754;9.982;2022-12-24T08:39:15;34.35;;;17.17;;
8044;SDS011;4065;48.754;9.982;2022-12-24T08:42:17;55.78;;;33.47;;
8044;SDS011;4065;48.754;9.982;2022-12-24T08:45:19;91.68;;;55.50;;
8044;SDS011;4065;48.754;9.982;2022-12-24T08:48:20;115.40;;;73.47;;
8044;SDS011;4065;48.754;9.982;2022-12-24T08:51:22;74.18;;;50.03;;
8044;SDS011;4065;48.754;9.982;2022-12-24T08:54:25;26.60;;;16.98;;
8044;SDS011;4065;48.754;9.982;2022-12-24T08:57:27;18.65;;;10.95;;
8044;SDS011;4065;48.754;9.982;2022-12-24T09:00:31;14.27;;;7.20;;
8044;SDS011;4065;48.754;9.982;2022-12-24T09:03:33;16.63;;;7.65;;
8044;SDS011;4065;48.754;9.982;2022-12-24T09:06:43;10.57;;;5.60;;
8044;SDS011;4065;48.754;9.982;2022-12-24T09:09:50;10.88;;;5.22;;
8044;SDS011;4065;48.754;9.982;2022-12-24T09:12:53;16.60;;;5.53;;
8044;SDS011;4065;48.754;9.982;2022-12-24T09:15:55;11.15;;;4.53;;
8044;SDS011;4065;48.754;9.982;2022-12-24T09:18:57;12.20;;;4.78;;
8044;SDS011;4065;48.754;9.982;2022-12-24T09:21:58;13.43;;;5.32;;
8044;SDS011;4065;48.754;9.982;2022-12-24T09:25:01;13.85;;;5.13;;
8044;SDS011;4065;48.754;9.982;2022-12-24T09:28:03;11.82;;;4.50;;
8044;SDS011;4065;48.754;9.982;2022-12-24T09:31:05;13.55;;;4.30;;
8044;SDS011;4065;48.754;9.982;2022-12-24T09:34:08;12.48;;;4.00;;
8044;SDS011;4065;48.754;9.982;2022-12-24T09:37:10;12.65;;;4.07;;
8044;SDS011;4065;48.754;9.982;2022-12-24T09:40:16;19.17;;;5.32;;
8044;SDS011;4065;48.754;9.982;2022-12-24T09:43:23;14.07;;;5.50;;
8044;SDS011;4065;48.754;9.982;2022-12-24T09:46:27;11.40;;;4.85;;
8044;SDS011;4065;48.754;9.982;2022-12-24T09:49:33;14.82;;;4.80;;
8044;SDS011;4065;48.754;9.982;2022-12-24T09:52:39;17.10;;;4.97;;
8044;SDS011;4065;48.754;9.982;2022-12-24T09:55:43;12.57;;;4.80;;
8044;SDS011;4065;48.754;9.982;2022-12-24T09:58:47;12.05;;;4.20;;
8044;SDS011;4065;48.754;9.982;2022-12-24T10:01:51;14.98;;;4.40;;
8044;SDS011;4065;48.754;9.982;2022-12-24T10:04:54;13.77;;;5.50;;
8044;SDS011;4065;48.754;9.982;2022-12-24T10:07:57;19.10;;;5.28;;
8044;SDS011;4065;48.754;9.982;2022-12-24T10:11:06;16.00;;;5.20;;
8044;SDS011;4065;48.754;9.982;2022-12-24T10:14:16;11.50;;;4.88;;
8044;SDS011;4065;48.754;9.982;2022-12-24T10:17:27;18.13;;;6.93;;
8044;SDS011;4065;48.754;9.982;2022-12-24T10:20:35;18.95;;;11.02;;
8044;SDS011;4065;48.754;9.982;2022-12-24T10:23:43;20.83;;;6.03;;
8044;SDS011;4065;48.754;9.982;2022-12-24T10:26:49;20.00;;;6.78;;
8044;SDS011;4065;48.754;9.982;2022-12-24T10:29:55;24.15;;;10.13;;
8044;SDS011;4065;48.754;9.982;2022-12-24T10:33:00;41.35;;;17.58;;
8044;SDS011;4065;48.754;9.982;2022-12-24T10:36:02;13.60;;;5.47;;
8044;SDS011;4065;48.754;9.982;2022-12-24T10:39:05;13.27;;;5.03;;
8044;SDS011;4065;48.754;9.982;2022-12-24T10:42:11;14.55;;;4.25;;
8044;SDS011;4065;48.754;9.982;2022-12-24T10:45:15;15.95;;;4.05;;
8044;SDS011;4065;48.754;9.982;2022-12-24T10:48:20;9.07;;;3.97;;
8044;SDS011;4065;48.754;9.982;2022-12-24T10:51:34;13.85;;;3.90;;
8044;SDS011;4065;48.754;9.982;2022-12-24T10:54:39;10.77;;;4.20;;
8044;SDS011;4065;48.754;9.982;2022-12-24T10:58:12;12.57;;;3.60;;
8044;SDS011;4065;48.754;9.982;2022-12-24T11:01:15;11.43;;;3.42;;
8044;SDS011;4065;48.754;9.982;2022-12-24T11:04:18;11.82;;;4.10;;
8044;SDS011;4065;48.754;9.982;2022-12-24T11:07:22;13.80;;;4.85;;
8044;SDS011;4065;48.754;9.982;2022-12-24T11:10:24;10.77;;;4.00;;
8044;SDS011;4065;48.754;9.982;2022-12-24T11:13:28;11.40;;;4.15;;
8044;SDS011;4065;48.754;9.982;2022-12-24T11:16:31;15.65;;;4.45;;
8044;SDS011;4065;48.754;9.982;2022-12-24T11:19:36;15.05;;;3.83;;
8044;SDS011;4065;48.754;9.982;2022-12-24T11:22:39;14.07;;;4.10;;
8044;SDS011;4065;48.754;9.982;2022-12-24T11:25:41;11.63;;;4.35;;
8044;SDS011;4065;48.754;9.982;2022-12-24T11:29:02;14.30;;;5.35;;
8044;SDS011;4065;48.754;9.982;2022-12-24T11:32:15;12.50;;;4.20;;
8044;SDS011;4065;48.754;9.982;2022-12-24T11:35:18;19.13;;;5.57;;
8044;SDS011;4065;48.754;9.982;2022-12-24T11:38:22;17.77;;;8.02;;
8044;SDS011;4065;48.754;9.982;2022-12-24T11:41:25;11.63;;;4.68;;
8044;SDS011;4065;48.754;9.982;2022-12-24T11:44:28;14.02;;;6.68;;
8044;SDS011;4065;48.754;9.982;2022-12-24T11:47:33;12.93;;;3.97;;
8044;SDS011;4065;48.754;9.982;2022-12-24T11:50:36;13.85;;;3.97;;
8044;SDS011;4065;48.754;9.982;2022-12-24T11:53:40;13.40;;;4.20;;
8044;SDS011;4065;48.754;9.982;2022-12-24T11:56:45;10.07;;;3.80;;
8044;SDS011;4065;48.754;9.982;2022-12-24T11:59:50;11.52;;;3.92;;
8044;SDS011;4065;48.754;9.982;2022-12-24T12:02:51;15.25;;;4.30;;
8044;SDS011;4065;48.754;9.982;2022-12-24T12:05:57;16.73;;;3.90;;
8044;SDS011;4065;48.754;9.982;2022-12-24T12:09:00;15.63;;;4.25;;
8044;SDS011;4065;48.754;9.982;2022-12-24T12:12:04;14.77;;;4.28;;
8044;SDS011;4065;48.754;9.982;2022-12-24T12:15:11;11.95;;;3.72;;
8044;SDS011;4065;48.754;9.982;2022-12-24T12:18:14;11.85;;;3.90;;
8044;SDS011;4065;48.754;9.982;2022-12-24T12:21:17;12.68;;;4.18;;
8044;SDS011;4065;48.754;9.982;2022-12-24T12:24:21;15.38;;;4.80;;
8044;SDS011;4065;48.754;9.982;2022-12-24T12:27:26;10.40;;;4.13;;
8044;SDS011;4065;48.754;9.982;2022-12-24T12:30:32;19.17;;;8.25;;
8044;SDS011;4065;48.754;9.982;2022-12-24T12:33:37;33.35;;;15.40;;
8044;SDS011;4065;48.754;9.982;2022-12-24T12:36:42;15.88;;;7.28;;
8044;SDS011;4065;48.754;9.982;2022-12-24T12:39:47;21.23;;;9.95;;
8044;SDS011;4065;48.754;9.982;2022-12-24T12:42:50;40.33;;;23.95;;
8044;SDS011;4065;48.754;9.982;2022-12-24T12:45:56;16.25;;;7.60;;
8044;SDS011;4065;48.754;9.982;2022-12-24T12:49:04;21.92;;;10.05;;
8044;SDS011;4065;48.754;9.982;2022-12-24T12:52:14;21.83;;;9.18;;
8044;SDS011;4065;48.754;9.982;2022-12-24T12:55:26;19.50;;;11.00;;
8044;SDS011;4065;48.754;9.982;2022-12-24T12:58:34;13.45;;;6.15;;
8044;SDS011;4065;48.754;9.982;2022-12-24T13:01:41;16.30;;;7.70;;
8044;SDS011;4065;48.754;9.982;2022-12-24T13:08:26;13.80;;;7.53;;
8044;SDS011;4065;48.754;9.982;2022-12-24T13:11:45;10.23;;;5.47;;
8044;SDS011;4065;48.754;9.982;2022-12-24T13:14:56;13.30;;;6.97;;
8044;SDS011;4065;48.754;9.982;2022-12-24T13:18:10;13.25;;;5.38;;
8044;SDS011;4065;48.754;9.982;2022-12-24T13:21:21;13.15;;;5.75;;
8044;SDS011;4065;48.754;9.982;2022-12-24T13:24:24;18.38;;;7.80;;
8044;SDS011;4065;48.754;9.982;2022-12-24T13:27:27;11.40;;;6.72;;
8044;SDS011;4065;48.754;9.982;2022-12-24T13:30:37;15.25;;;6.38;;
8044;SDS011;4065;48.754;9.982;2022-12-24T13:33:48;9.68;;;5.15;;
8044;SDS011;4065;48.754;9.982;2022-12-24T13:37:00;14.57;;;5.53;;
8044;SDS011;4065;48.754;9.982;2022-12-24T13:40:15;16.35;;;5.82;;
8044;SDS011;4065;48.754;9.982;2022-12-24T13:43:17;11.85;;;5.75;;
8044;SDS011;4065;48.754;9.982;2022-12-24T13:49:57;16.70;;;6.82;;
8044;SDS011;4065;48.754;9.982;2022-12-24T13:53:20;13.55;;;5.60;;
8044;SDS011;4065;48.754;9.982;2022-12-24T13:56:24;16.77;;;7.82;;
8044;SDS011;4065;48.754;9.982;2022-12-24T13:59:33;14.57;;;6.55;;
8044;SDS011;4065;48.754;9.982;2022-12-24T14:02:38;16.38;;;5.80;;
8044;SDS011;4065;48.754;9.982;2022-12-24T14:05:47;13.80;;;5.88;;
8044;SDS011;4065;48.754;9.982;2022-12-24T14:08:51;15.68;;;5.70;;
8044;SDS011;4065;48.754;9.982;2022-12-24T14:12:13;16.60;;;5.78;;
8044;SDS011;4065;48.754;9.982;2022-12-24T14:19:02;14.60;;;7.30;;
8044;SDS011;4065;48.754;9.982;2022-12-24T14:22:19;13.85;;;6.20;;
8044;SDS011;4065;48.754;9.982;2022-12-24T14:25:26;16.67;;;5.75;;
8044;SDS011;4065;48.754;9.982;2022-12-24T14:28:29;20.48;;;5.38;;
8044;SDS011;4065;48.754;9.982;2022-12-24T14:31:34;12.45;;;4.90;;
8044;SDS011;4065;48.754;9.982;2022-12-24T14:34:37;12.25;;;5.97;;
8044;SDS011;4065;48.754;9.982;2022-12-24T14:37:40;14.60;;;6.80;;
8044;SDS011;4065;48.754;9.982;2022-12-24T14:40:48;11.27;;;5.93;;
8044;SDS011;4065;48.754;9.982;2022-12-24T14:43:56;8.85;;;4.95;;
8044;SDS011;4065;48.754;9.982;2022-12-24T14:47:05;15.65;;;6.72;;
8044;SDS011;4065;48.754;9.982;2022-12-24T14:50:22;16.95;;;6.38;;
8044;SDS011;4065;48.754;9.982;2022-12-24T14:53:45;13.43;;;4.88;;
8044;SDS011;4065;48.754;9.982;2022-12-24T14:57:18;10.57;;;5.05;;
8044;SDS011;4065;48.754;9.982;2022-12-24T15:00:22;7.40;;;4.55;;
8044;SDS011;4065;48.754;9.982;2022-12-24T15:03:26;16.33;;;4.88;;
8044;SDS011;4065;48.754;9.982;2022-12-24T15:06:30;11.88;;;5.93;;
8044;SDS011;4065;48.754;9.982;2022-12-24T15:09:34;12.80;;;5.70;;
8044;SDS011;4065;48.754;9.982;2022-12-24T15:12:39;34.70;;;20.77;;
8044;SDS011;4065;48.754;9.982;2022-12-24T15:15:43;15.63;;;8.05;;
8044;SDS011;4065;48.754;9.982;2022-12-24T15:18:47;29.75;;;19.35;;
8044;SDS011;4065;48.754;9.982;2022-12-24T15:21:49;28.40;;;18.50;;
8044;SDS011;4065;48.754;9.982;2022-12-24T15:24:53;29.27;;;13.88;;
8044;SDS011;4065;48.754;9.982;2022-12-24T15:27:55;17.17;;;9.40;;
8044;SDS011;4065;48.754;9.982;2022-12-24T15:31:03;16.05;;;7.78;;
8044;SDS011;4065;48.754;9.982;2022-12-24T15:37:26;35.75;;;20.55;;
8044;SDS011;4065;48.754;9.982;2022-12-24T15:40:30;17.30;;;10.10;;
8044;SDS011;4065;48.754;9.982;2022-12-24T15:43:32;14.35;;;8.50;;
8044;SDS011;4065;48.754;9.982;2022-12-24T15:46:33;15.00;;;8.30;;
8044;SDS011;4065;48.754;9.982;2022-12-24T15:49:35;15.40;;;8.02;;
8044;SDS011;4065;48.754;9.982;2022-12-24T15:52:37;16.02;;;6.55;;
8044;SDS011;4065;48.754;9.982;2022-12-24T15:55:43;15.90;;;4.85;;
8044;SDS011;4065;48.754;9.982;2022-12-24T15:58:45;14.50;;;5.82;;
8044;SDS011;4065;48.754;9.982;2022-12-24T16:01:46;14.05;;;7.38;;
8044;SDS011;4065;48.754;9.982;2022-12-24T16:04:48;22.10;;;12.50;;
8044;SDS011;4065;48.754;9.982;2022-12-24T16:07:58;54.38;;;31.75;;
8044;SDS011;4065;48.754;9.982;2022-12-24T16:11:15;55.65;;;32.55;;
8044;SDS011;4065;48.754;9.982;2022-12-24T16:14:18;47.15;;;30.05;;
8044;SDS011;4065;48.754;9.982;2022-12-24T16:17:20;26.33;;;16.48;;
8044;SDS011;4065;48.754;9.982;2022-12-24T16:20:22;18.50;;;9.13;;
8044;SDS011;4065;48.754;9.982;2022-12-24T16:23:25;18.20;;;9.45;;
8044;SDS011;4065;48.754;9.982;2022-12-24T16:26:30;19.55;;;10.27;;
8044;SDS011;4065;48.754;9.982;2022-12-24T16:29:31;19.38;;;9.35;;
8044;SDS011;4065;48.754;9.982;2022-12-24T16:32:34;17.50;;;10.10;;
8044;SDS011;4065;48.754;9.982;2022-12-24T16:35:37;11.30;;;5.55;;
8044;SDS011;4065;48.754;9.982;2022-12-24T16:38:38;11.77;;;5.97;;
8044;SDS011;4065;48.754;9.982;2022-12-24T16:41:55;21.40;;;7.43;;
8044;SDS011;4065;48.754;9.982;2022-12-24T16:45:15;20.10;;;8.68;;
8044;SDS011;4065;48.754;9.982;2022-12-24T16:48:18;11.63;;;6.25;;
8044;SDS011;4065;48.754;9.982;2022-12-24T16:51:21;19.83;;;7.05;;
8044;SDS011;4065;48.754;9.982;2022-12-24T16:54:22;20.13;;;8.00;;
8044;SDS011;4065;48.754;9.982;2022-12-24T16:57:25;17.75;;;8.23;;
8044;SDS011;4065;48.754;9.982;2022-12-24T17:00:27;15.43;;;8.48;;
8044;SDS011;4065;48.754;9.982;2022-12-24T17:03:28;22.92;;;14.25;;
8044;SDS011;4065;48.754;9.982;2022-12-24T17:06:30;26.05;;;14.38;;
8044;SDS011;4065;48.754;9.982;2022-12-24T17:09:31;33.25;;;15.07;;
8044;SDS011;4065;48.754;9.982;2022-12-24T17:12:34;25.48;;;12.73;;
8044;SDS011;4065;48.754;9.982;2022-12-24T17:15:36;24.15;;;10.93;;
8044;SDS011;4065;48.754;9.982;2022-12-24T17:18:41;26.70;;;15.90;;
8044;SDS011;4065;48.754;9.982;2022-12-24T17:21:43;27.40;;;14.38;;
8044;SDS011;4065;48.754;9.982;2022-12-24T17:24:44;45.13;;;23.10;;
8044;SDS011;4065;48.754;9.982;2022-12-24T17:27:47;32.65;;;19.30;;
8044;SDS011;4065;48.754;9.982;2022-12-24T17:30:49;29.83;;;14.95;;
8044;SDS011;4065;48.754;9.982;2022-12-24T17:33:51;21.70;;;12.68;;
8044;SDS011;4065;48.754;9.982;2022-12-24T17:36:53;22.55;;;15.00;;
8044;SDS011;4065;48.754;9.982;2022-12-24T17:39:54;19.65;;;11.02;;
8044;SDS011;4065;48.754;9.982;2022-12-24T17:42:57;21.05;;;14.80;;
8044;SDS011;4065;48.754;9.982;2022-12-24T17:46:02;20.75;;;13.35;;
8044;SDS011;4065;48.754;9.982;2022-12-24T17:49:04;15.82;;;10.15;;
8044;SDS011;4065;48.754;9.982;2022-12-24T17:52:06;14.75;;;9.85;;
8044;SDS011;4065;48.754;9.982;2022-12-24T17:55:15;13.38;;;9.90;;
8044;SDS011;4065;48.754;9.982;2022-12-24T17:58:17;15.60;;;9.38;;
8044;SDS011;4065;48.754;9.982;2022-12-24T18:01:20;19.77;;;11.95;;
8044;SDS011;4065;48.754;9.982;2022-12-24T18:04:23;21.27;;;12.25;;
8044;SDS011;4065;48.754;9.982;2022-12-24T18:07:24;17.63;;;11.90;;
8044;SDS011;4065;48.754;9.982;2022-12-24T18:10:27;16.45;;;13.43;;
8044;SDS011;4065;48.754;9.982;2022-12-24T18:13:29;16.63;;;9.38;;
8044;SDS011;4065;48.754;9.982;2022-12-24T18:16:31;16.35;;;12.40;;
8044;SDS011;4065;48.754;9.982;2022-12-24T18:19:33;15.20;;;10.70;;
8044;SDS011;4065;48.754;9.982;2022-12-24T18:22:35;18.63;;;13.13;;
8044;SDS011;4065;48.754;9.982;2022-12-24T18:25:38;15.48;;;10.10;;
8044;SDS011;4065;48.754;9.982;2022-12-24T18:28:40;13.40;;;9.90;;
8044;SDS011;4065;48.754;9.982;2022-12-24T18:31:41;15.10;;;9.27;;
8044;SDS011;4065;48.754;9.982;2022-12-24T18:34:43;12.13;;;7.95;;
8044;SDS011;4065;48.754;9.982;2022-12-24T18:37:45;12.10;;;8.10;;
8044;SDS011;4065;48.754;9.982;2022-12-24T18:40:47;14.23;;;9.18;;
8044;SDS011;4065;48.754;9.982;2022-12-24T18:43:49;12.18;;;9.43;;
8044;SDS011;4065;48.754;9.982;2022-12-24T18:46:51;13.52;;;9.48;;
8044;SDS011;4065;48.754;9.982;2022-12-24T18:49:53;15.77;;;9.35;;
8044;SDS011;4065;48.754;9.982;2022-12-24T18:52:54;10.60;;;8.32;;
8044;SDS011;4065;48.754;9.982;2022-12-24T18:56:02;11.73;;;8.25;;
8044;SDS011;4065;48.754;9.982;2022-12-24T18:59:04;10.90;;;9.10;;
8044;SDS011;4065;48.754;9.982;2022-12-24T19:02:06;9.18;;;7.05;;
8044;SDS011;4065;48.754;9.982;2022-12-24T19:05:07;12.15;;;7.63;;
8044;SDS011;4065;48.754;9.982;2022-12-24T19:08:09;13.10;;;9.68;;